createdAt,value
2019-01-08T00:00:08.672Z,0
2019-01-08T00:00:49.407Z,0
2019-01-08T00:01:30.204Z,0
2019-01-08T00:02:11.183Z,0
2019-01-08T00:02:52.051Z,0
2019-01-08T00:03:32.791Z,0
2019-01-08T00:04:13.518Z,0
2019-01-08T00:04:54.233Z,0
2019-01-08T00:05:35.183Z,0
2019-01-08T00:06:16.068Z,0
2019-01-08T00:06:56.816Z,0
2019-01-08T00:07:37.583Z,0
2019-01-08T00:08:18.297Z,0
2019-01-08T00:08:59.103Z,0
2019-01-08T00:09:39.887Z,0
2019-01-08T00:10:20.725Z,0
2019-01-08T00:11:01.738Z,0
2019-01-08T00:11:42.587Z,0
2019-01-08T00:12:23.364Z,0
2019-01-08T00:13:04.168Z,0
2019-01-08T00:13:44.925Z,0
2019-01-08T00:14:25.722Z,0
2019-01-08T00:15:06.521Z,0
2019-01-08T00:15:47.560Z,0
2019-01-08T00:16:28.287Z,0
2019-01-08T00:17:09.049Z,0
2019-01-08T00:17:50.056Z,0
2019-01-08T00:18:30.854Z,0
2019-01-08T00:19:11.613Z,0
2019-01-08T00:19:52.346Z,0
2019-01-08T00:20:33.122Z,0
2019-01-08T00:21:14.844Z,0
2019-01-08T00:21:55.870Z,0
2019-01-08T00:22:36.677Z,0
2019-01-08T00:23:18.067Z,0
2019-01-08T00:23:58.906Z,0
2019-01-08T00:24:39.636Z,0
2019-01-08T00:25:20.451Z,0
2019-01-08T00:26:01.230Z,0
2019-01-08T00:26:41.985Z,0
2019-01-08T00:27:22.833Z,0
2019-01-08T00:28:05.080Z,0
2019-01-08T00:28:45.259Z,0
2019-01-08T00:29:26.018Z,0
2019-01-08T00:30:06.770Z,0
2019-01-08T00:30:47.637Z,0
2019-01-08T00:31:28.400Z,0
2019-01-08T00:32:09.104Z,0
2019-01-08T00:32:49.864Z,0
2019-01-08T00:33:30.601Z,0
2019-01-08T00:34:11.438Z,0
2019-01-08T00:34:52.150Z,0
2019-01-08T00:35:32.870Z,0
2019-01-08T00:36:13.706Z,0
2019-01-08T00:36:54.455Z,0
2019-01-08T00:37:35.292Z,0
2019-01-08T00:38:16.051Z,0
2019-01-08T00:38:56.787Z,0
2019-01-08T00:39:37.542Z,0
2019-01-08T00:40:18.361Z,0
2019-01-08T00:40:59.210Z,0
2019-01-08T00:41:40.016Z,0
2019-01-08T00:42:20.786Z,0
2019-01-08T00:43:01.510Z,0
2019-01-08T00:43:42.312Z,0
2019-01-08T00:44:23.242Z,0
2019-01-08T00:45:04.540Z,0
2019-01-08T00:45:45.247Z,0
2019-01-08T00:46:25.954Z,0
2019-01-08T00:47:06.744Z,0
2019-01-08T00:47:47.541Z,0
2019-01-08T00:48:28.231Z,0
2019-01-08T00:49:09.030Z,0
2019-01-08T00:49:49.901Z,0
2019-01-08T00:50:30.707Z,0
2019-01-08T00:51:11.444Z,0
2019-01-08T00:51:52.228Z,0
2019-01-08T00:52:33.104Z,0
2019-01-08T00:53:13.939Z,0
2019-01-08T00:53:54.629Z,0
2019-01-08T00:54:35.360Z,0
2019-01-08T00:55:16.114Z,0
2019-01-08T00:55:57.018Z,0
2019-01-08T00:56:37.825Z,0
2019-01-08T00:57:18.674Z,0
2019-01-08T00:57:59.394Z,0
2019-01-08T00:58:40.139Z,0
2019-01-08T00:59:21.143Z,0
2019-01-08T01:00:02.054Z,0
2019-01-08T01:00:42.970Z,0
2019-01-08T01:01:23.737Z,0
2019-01-08T01:02:05.173Z,0
2019-01-08T01:02:45.994Z,0
2019-01-08T01:03:26.797Z,0
2019-01-08T01:23:17.691Z,0
2019-01-08T01:23:58.308Z,0
2019-01-08T01:24:38.909Z,0
2019-01-08T01:25:19.513Z,0
2019-01-08T01:26:00.111Z,0
2019-01-08T01:26:40.717Z,0
2019-01-08T01:27:21.359Z,0
2019-01-08T01:28:02.023Z,0
2019-01-08T01:28:42.629Z,0
2019-01-08T01:29:23.255Z,0
2019-01-08T01:30:03.875Z,0
2019-01-08T01:30:44.467Z,0
2019-01-08T01:31:25.151Z,0
2019-01-08T01:32:05.685Z,0
2019-01-08T01:32:46.289Z,0
2019-01-08T01:33:26.893Z,0
2019-01-08T01:34:07.499Z,0
2019-01-08T01:34:48.117Z,0
2019-01-08T01:35:28.729Z,0
2019-01-08T01:36:09.355Z,0
2019-01-08T01:36:49.961Z,0
2019-01-08T01:37:30.569Z,0
2019-01-08T01:38:11.225Z,0
2019-01-08T01:38:51.783Z,0
2019-01-08T01:39:32.411Z,0
2019-01-08T01:40:13.109Z,0
2019-01-08T01:40:53.636Z,0
2019-01-08T01:41:34.250Z,0
2019-01-08T01:42:14.867Z,0
2019-01-08T01:42:55.475Z,0
2019-01-08T01:43:36.115Z,0
2019-01-08T01:44:16.736Z,0
2019-01-08T01:44:57.350Z,0
2019-01-08T01:45:37.950Z,0
2019-01-08T01:46:18.554Z,0
2019-01-08T01:46:59.163Z,0
2019-01-08T01:47:39.773Z,0
2019-01-08T01:48:20.387Z,0
2019-01-08T01:49:01.067Z,0
2019-01-08T01:49:41.718Z,0
2019-01-08T01:50:22.329Z,0
2019-01-08T01:51:02.976Z,0
2019-01-08T01:51:43.569Z,0
2019-01-08T01:52:24.194Z,0
2019-01-08T01:53:04.814Z,0
2019-01-08T01:53:45.420Z,0
2019-01-08T01:54:26.037Z,0
2019-01-08T01:55:06.629Z,0
2019-01-08T01:55:47.273Z,0
2019-01-08T01:56:27.907Z,0
2019-01-08T01:57:08.517Z,0
2019-01-08T01:57:49.101Z,0
2019-01-08T01:58:29.707Z,0
2019-01-08T01:59:10.313Z,0
2019-01-08T01:59:50.950Z,0
2019-01-08T02:00:31.550Z,0
2019-01-08T02:01:12.155Z,0
2019-01-08T02:01:52.797Z,0
2019-01-08T02:02:33.425Z,0
2019-01-08T02:03:14.082Z,0
2019-01-08T02:03:54.665Z,0
2019-01-08T02:04:35.390Z,0
2019-01-08T02:05:15.977Z,0
2019-01-08T02:05:56.585Z,0
2019-01-08T02:06:37.243Z,0
2019-01-08T02:07:17.997Z,0
2019-01-08T02:07:58.612Z,0
2019-01-08T02:08:39.221Z,0
2019-01-08T02:09:19.835Z,0
2019-01-08T02:10:00.493Z,0
2019-01-08T02:10:41.141Z,0
2019-01-08T02:11:21.804Z,0
2019-01-08T02:12:02.656Z,0
2019-01-08T02:12:43.811Z,0
2019-01-08T02:13:25.373Z,0
2019-01-08T02:14:06.050Z,0
2019-01-08T02:14:46.652Z,0
2019-01-08T02:15:27.259Z,0
2019-01-08T02:16:07.886Z,0
2019-01-08T02:16:48.503Z,0
2019-01-08T02:17:29.125Z,0
2019-01-08T02:18:09.745Z,0
2019-01-08T02:18:50.361Z,0
2019-01-08T02:19:30.975Z,0
2019-01-08T02:20:11.577Z,0
2019-01-08T02:20:52.179Z,0
2019-01-08T02:21:32.793Z,0
2019-01-08T02:22:13.415Z,0
2019-01-08T02:22:54.027Z,0
2019-01-08T02:23:34.637Z,0
2019-01-08T02:24:15.245Z,0
2019-01-08T02:24:55.867Z,0
2019-01-08T02:25:36.469Z,0
2019-01-08T02:26:17.067Z,0
2019-01-08T02:26:57.697Z,0
2019-01-08T02:27:38.329Z,0
2019-01-08T02:28:18.939Z,0
2019-01-08T02:28:59.573Z,0
2019-01-08T02:29:40.179Z,0
2019-01-08T02:30:20.798Z,0
2019-01-08T02:31:01.436Z,0
2019-01-08T02:31:42.027Z,0
2019-01-08T02:32:22.639Z,0
2019-01-08T02:33:03.246Z,0
2019-01-08T02:33:43.875Z,0
2019-01-08T02:34:24.485Z,0
2019-01-08T02:35:05.101Z,0
2019-01-08T02:35:45.711Z,0
2019-01-08T02:36:26.338Z,0
2019-01-08T02:37:06.961Z,0
2019-01-08T02:37:47.566Z,0
2019-01-08T02:38:28.209Z,0
2019-01-08T02:39:08.817Z,0
2019-01-08T02:39:49.439Z,0
2019-01-08T02:40:30.077Z,0
2019-01-08T02:41:10.687Z,0
2019-01-08T02:41:51.381Z,0
2019-01-08T02:42:31.923Z,0
2019-01-08T02:43:12.541Z,0
2019-01-08T02:43:53.217Z,0
2019-01-08T02:44:33.836Z,0
2019-01-08T02:45:14.362Z,0
2019-01-08T02:45:54.998Z,0
2019-01-08T02:46:35.687Z,0
2019-01-08T02:47:16.226Z,0
2019-01-08T02:47:56.839Z,0
2019-01-08T02:48:37.492Z,0
2019-01-08T02:49:18.079Z,0
2019-01-08T02:49:58.701Z,0
2019-01-08T02:50:39.343Z,0
2019-01-08T02:51:19.945Z,0
2019-01-08T02:52:00.550Z,0
2019-01-08T02:52:41.148Z,0
2019-01-08T02:53:21.759Z,0
2019-01-08T02:54:02.359Z,0
2019-01-08T02:54:43.059Z,0
2019-01-08T02:55:23.601Z,0
2019-01-08T02:56:04.217Z,0
2019-01-08T02:56:44.871Z,0
2019-01-08T02:57:25.505Z,0
2019-01-08T02:58:06.135Z,0
2019-01-08T02:58:46.729Z,0
2019-01-08T02:59:27.350Z,0
2019-01-08T03:00:07.962Z,0
2019-01-08T03:00:48.627Z,0
2019-01-08T03:01:29.272Z,0
2019-01-08T03:02:09.897Z,0
2019-01-08T03:02:50.509Z,0
2019-01-08T03:03:31.165Z,0
2019-01-08T03:04:11.793Z,0
2019-01-08T03:04:52.417Z,0
2019-01-08T03:05:33.031Z,0
2019-01-08T03:06:13.641Z,0
2019-01-08T03:06:54.251Z,0
2019-01-08T03:07:34.887Z,0
2019-01-08T03:08:15.526Z,0
2019-01-08T03:08:56.133Z,0
2019-01-08T03:09:36.783Z,0
2019-01-08T03:10:17.410Z,0
2019-01-08T03:10:58.031Z,0
2019-01-08T03:11:38.675Z,0
2019-01-08T03:12:19.533Z,0
2019-01-08T03:13:00.135Z,0
2019-01-08T03:13:40.751Z,0
2019-01-08T03:14:21.357Z,0
2019-01-08T03:15:01.951Z,0
2019-01-08T03:15:42.567Z,0
2019-01-08T03:16:23.169Z,0
2019-01-08T03:17:03.777Z,0
2019-01-08T03:17:44.381Z,0
2019-01-08T03:18:24.985Z,0
2019-01-08T03:19:05.591Z,0
2019-01-08T03:19:46.211Z,0
2019-01-08T03:20:26.835Z,0
2019-01-08T03:21:07.465Z,0
2019-01-08T03:21:48.070Z,0
2019-01-08T03:22:28.665Z,0
2019-01-08T03:23:09.283Z,0
2019-01-08T03:23:49.901Z,0
2019-01-08T03:24:30.499Z,0
2019-01-08T03:25:11.095Z,0
2019-01-08T03:25:51.727Z,0
2019-01-08T03:26:32.333Z,0
2019-01-08T03:27:12.940Z,0
2019-01-08T03:27:53.577Z,0
2019-01-08T03:28:34.197Z,0
2019-01-08T03:29:14.823Z,0
2019-01-08T03:29:55.435Z,0
2019-01-08T03:30:36.071Z,0
2019-01-08T03:31:16.658Z,0
2019-01-08T03:31:57.263Z,0
2019-01-08T03:32:37.857Z,0
2019-01-08T03:33:18.517Z,0
2019-01-08T03:33:59.127Z,0
2019-01-08T03:34:39.778Z,0
2019-01-08T03:35:20.393Z,0
2019-01-08T03:36:01.025Z,0
2019-01-08T03:36:41.643Z,0
2019-01-08T03:37:22.265Z,0
2019-01-08T03:38:02.895Z,0
2019-01-08T03:38:43.499Z,0
2019-01-08T03:39:24.114Z,0
2019-01-08T03:40:04.759Z,0
2019-01-08T03:40:45.375Z,0
2019-01-08T03:41:25.975Z,0
2019-01-08T03:42:06.578Z,0
2019-01-08T03:42:47.262Z,0
2019-01-08T03:43:27.789Z,0
2019-01-08T03:44:08.404Z,0
2019-01-08T03:44:49.019Z,0
2019-01-08T03:45:29.676Z,0
2019-01-08T03:46:10.305Z,0
2019-01-08T03:46:50.915Z,0
2019-01-08T03:47:31.545Z,0
2019-01-08T03:48:12.163Z,0
2019-01-08T03:48:52.769Z,0
2019-01-08T03:49:33.397Z,0
2019-01-08T03:50:14.039Z,0
2019-01-08T03:50:54.636Z,0
2019-01-08T03:51:35.241Z,0
2019-01-08T03:52:15.847Z,0
2019-01-08T03:52:56.439Z,0
2019-01-08T03:53:37.130Z,0
2019-01-08T03:54:17.729Z,0
2019-01-08T03:54:58.305Z,0
2019-01-08T03:55:38.951Z,0
2019-01-08T03:56:19.572Z,0
2019-01-08T03:57:00.175Z,0
2019-01-08T03:57:40.803Z,0
2019-01-08T03:58:21.435Z,0
2019-01-08T03:59:02.053Z,0
2019-01-08T03:59:42.667Z,0
2019-01-08T04:00:23.270Z,0
2019-01-08T04:01:03.887Z,0
2019-01-08T04:01:44.487Z,0
2019-01-08T04:02:25.102Z,0
2019-01-08T04:03:05.687Z,0
2019-01-08T04:03:46.335Z,0
2019-01-08T04:04:26.955Z,0
2019-01-08T04:05:07.565Z,0
2019-01-08T04:05:48.181Z,0
2019-01-08T04:06:28.790Z,0
2019-01-08T04:07:09.408Z,0
2019-01-08T04:07:50.009Z,0
2019-01-08T04:08:30.607Z,0
2019-01-08T04:09:11.223Z,0
2019-01-08T04:09:51.827Z,0
2019-01-08T04:10:32.438Z,0
2019-01-08T04:11:13.047Z,0
2019-01-08T04:11:53.661Z,0
2019-01-08T04:12:34.285Z,0
2019-01-08T04:13:14.883Z,0
2019-01-08T04:13:55.498Z,0
2019-01-08T04:14:36.096Z,0
2019-01-08T04:15:16.691Z,0
2019-01-08T04:15:57.283Z,0
2019-01-08T04:16:37.881Z,0
2019-01-08T04:17:18.506Z,0
2019-01-08T04:17:59.122Z,0
2019-01-08T04:18:39.737Z,0
2019-01-08T04:19:20.394Z,0
2019-01-08T04:20:00.993Z,0
2019-01-08T04:20:41.607Z,0
2019-01-08T04:21:22.235Z,0
2019-01-08T04:22:02.845Z,0
2019-01-08T04:22:43.530Z,0
2019-01-08T04:23:24.131Z,0
2019-01-08T04:24:04.756Z,0
2019-01-08T04:24:45.381Z,0
2019-01-08T04:25:25.989Z,0
2019-01-08T04:26:06.599Z,0
2019-01-08T04:26:47.241Z,0
2019-01-08T04:27:27.864Z,0
2019-01-08T04:28:08.473Z,0
2019-01-08T04:28:49.081Z,0
2019-01-08T04:29:29.714Z,0
2019-01-08T04:30:10.322Z,0
2019-01-08T04:30:50.941Z,0
2019-01-08T04:31:31.541Z,0
2019-01-08T04:32:12.157Z,0
2019-01-08T04:32:52.769Z,0
2019-01-08T04:33:33.407Z,0
2019-01-08T04:34:14.009Z,0
2019-01-08T04:34:54.632Z,0
2019-01-08T04:35:35.251Z,0
2019-01-08T04:36:15.863Z,0
2019-01-08T04:36:56.493Z,0
2019-01-08T04:37:37.108Z,0
2019-01-08T04:38:17.725Z,0
2019-01-08T04:38:58.321Z,0
2019-01-08T04:39:38.926Z,0
2019-01-08T04:40:19.550Z,0
2019-01-08T04:41:00.199Z,0
2019-01-08T04:41:40.809Z,0
2019-01-08T04:42:21.411Z,0
2019-01-08T04:43:02.029Z,0
2019-01-08T04:43:42.627Z,0
2019-01-08T04:44:23.225Z,0
2019-01-08T04:45:03.856Z,0
2019-01-08T04:45:44.538Z,0
2019-01-08T04:46:25.161Z,0
2019-01-08T04:47:05.771Z,0
2019-01-08T04:47:46.415Z,0
2019-01-08T04:48:27.013Z,0
2019-01-08T04:49:07.632Z,0
2019-01-08T04:49:48.243Z,0
2019-01-08T04:50:28.847Z,0
2019-01-08T04:51:09.444Z,0
2019-01-08T04:51:50.107Z,0
2019-01-08T04:52:30.704Z,0
2019-01-08T04:53:11.304Z,0
2019-01-08T04:53:51.917Z,0
2019-01-08T04:54:32.534Z,0
2019-01-08T04:55:13.163Z,0
2019-01-08T04:55:53.770Z,0
2019-01-08T04:56:34.397Z,0
2019-01-08T04:57:15.116Z,0
2019-01-08T04:57:55.729Z,0
2019-01-08T04:58:36.333Z,0
2019-01-08T04:59:16.956Z,0
2019-01-08T04:59:58.996Z,0
2019-01-08T05:00:38.177Z,0
2019-01-08T05:01:18.786Z,0
2019-01-08T05:01:59.385Z,0
2019-01-08T05:02:40.039Z,0
2019-01-08T05:03:20.617Z,0
2019-01-08T05:04:01.240Z,0
2019-01-08T05:04:41.912Z,0
2019-01-08T05:05:22.539Z,0
2019-01-08T05:06:03.156Z,0
2019-01-08T05:06:43.770Z,0
2019-01-08T05:07:24.381Z,0
2019-01-08T05:08:05.006Z,0
2019-01-08T05:08:45.645Z,0
2019-01-08T05:09:26.262Z,0
2019-01-08T05:10:06.876Z,0
2019-01-08T05:10:47.496Z,0
2019-01-08T05:11:28.109Z,0
2019-01-08T05:12:08.724Z,0
2019-01-08T05:12:49.327Z,0
2019-01-08T05:13:29.936Z,0
2019-01-08T05:14:10.536Z,0
2019-01-08T05:14:51.135Z,0
2019-01-08T05:15:31.750Z,0
2019-01-08T05:16:12.376Z,0
2019-01-08T05:16:53.012Z,0
2019-01-08T05:17:33.607Z,0
2019-01-08T05:18:14.243Z,0
2019-01-08T05:18:54.891Z,0
2019-01-08T05:19:35.518Z,0
2019-01-08T05:20:16.126Z,0
2019-01-08T05:20:56.751Z,0
2019-01-08T05:21:37.353Z,0
2019-01-08T05:22:17.945Z,0
2019-01-08T05:22:58.565Z,0
2019-01-08T05:23:39.179Z,0
2019-01-08T05:24:19.796Z,0
2019-01-08T05:25:00.426Z,0
2019-01-08T05:25:41.026Z,0
2019-01-08T05:26:21.641Z,0
2019-01-08T05:27:02.262Z,0
2019-01-08T05:27:42.874Z,0
2019-01-08T05:28:23.477Z,0
2019-01-08T05:29:04.182Z,0
2019-01-08T05:29:44.798Z,0
2019-01-08T05:30:25.401Z,0
2019-01-08T05:31:06.006Z,0
2019-01-08T05:31:46.594Z,0
2019-01-08T05:32:27.207Z,0
2019-01-08T05:33:07.814Z,0
2019-01-08T05:33:48.451Z,0
2019-01-08T05:34:29.069Z,0
2019-01-08T05:35:09.700Z,0
2019-01-08T05:35:50.310Z,0
2019-01-08T05:36:30.914Z,0
2019-01-08T05:37:11.518Z,0
2019-01-08T05:37:52.106Z,0
2019-01-08T05:38:32.711Z,0
2019-01-08T05:39:13.330Z,0
2019-01-08T05:39:53.958Z,0
2019-01-08T05:40:34.565Z,0
2019-01-08T05:41:15.175Z,0
2019-01-08T05:41:55.778Z,0
2019-01-08T05:42:36.421Z,0
2019-01-08T05:43:17.036Z,0
2019-01-08T05:43:57.669Z,0
2019-01-08T05:44:38.282Z,0
2019-01-08T05:45:18.904Z,0
2019-01-08T05:45:59.504Z,0
2019-01-08T05:46:40.109Z,0
2019-01-08T05:47:20.713Z,0
2019-01-08T05:48:01.322Z,0
2019-01-08T05:48:41.946Z,0
2019-01-08T05:49:22.621Z,0
2019-01-08T05:50:03.169Z,0
2019-01-08T05:50:43.784Z,0
2019-01-08T05:51:24.412Z,0
2019-01-08T05:52:05.010Z,0
2019-01-08T05:52:45.616Z,0
2019-01-08T05:53:26.228Z,0
2019-01-08T05:54:06.820Z,0
2019-01-08T05:54:47.415Z,0
2019-01-08T05:55:28.022Z,0
2019-01-08T05:56:08.627Z,0
2019-01-08T05:56:49.226Z,0
2019-01-08T05:57:29.868Z,0
2019-01-08T05:58:10.477Z,0
2019-01-08T05:58:51.092Z,0
2019-01-08T05:59:31.725Z,0
2019-01-08T06:00:16.440Z,0
2019-01-08T06:00:52.942Z,0
2019-01-08T06:01:33.877Z,0
2019-01-08T06:02:14.154Z,0
2019-01-08T06:02:54.766Z,0
2019-01-08T06:03:35.430Z,0
2019-01-08T06:04:16.040Z,0
2019-01-08T06:04:56.676Z,0
2019-01-08T06:05:37.333Z,0
2019-01-08T06:06:17.950Z,0
2019-01-08T06:06:58.585Z,0
2019-01-08T06:07:39.206Z,0
2019-01-08T06:08:19.858Z,0
2019-01-08T06:09:00.416Z,0
2019-01-08T06:09:41.022Z,0
2019-01-08T06:10:21.636Z,0
2019-01-08T06:11:02.248Z,0
2019-01-08T06:11:42.870Z,0
2019-01-08T06:12:23.480Z,0
2019-01-08T06:13:04.112Z,0
2019-01-08T06:13:44.725Z,0
2019-01-08T06:14:25.341Z,0
2019-01-08T06:15:05.941Z,0
2019-01-08T06:15:46.554Z,0
2019-01-08T06:16:27.214Z,0
2019-01-08T06:17:07.800Z,0
2019-01-08T06:17:48.422Z,0
2019-01-08T06:18:29.057Z,0
2019-01-08T06:19:09.694Z,0
2019-01-08T06:19:50.391Z,0
2019-01-08T06:20:31.004Z,0
2019-01-08T06:21:11.684Z,0
2019-01-08T06:21:52.306Z,0
2019-01-08T06:22:32.920Z,0
2019-01-08T06:23:13.546Z,0
2019-01-08T06:23:54.162Z,0
2019-01-08T06:24:34.768Z,0
2019-01-08T06:25:15.398Z,0
2019-01-08T06:25:56.008Z,0
2019-01-08T06:26:36.624Z,0
2019-01-08T06:27:17.222Z,0
2019-01-08T06:27:57.844Z,0
2019-01-08T06:28:38.482Z,0
2019-01-08T06:29:19.116Z,0
2019-01-08T06:29:59.770Z,0
2019-01-08T06:30:40.386Z,0
2019-01-08T06:31:22.642Z,0
2019-01-08T06:32:01.674Z,0
2019-01-08T06:32:42.290Z,0
2019-01-08T06:33:22.919Z,0
2019-01-08T06:34:03.686Z,0
2019-01-08T06:34:44.340Z,0
2019-01-08T06:35:25.030Z,0
2019-01-08T06:36:05.684Z,0
2019-01-08T06:36:46.298Z,0
2019-01-08T06:37:26.912Z,0
2019-01-08T06:38:07.570Z,0
2019-01-08T06:38:48.162Z,0
2019-01-08T06:39:28.844Z,0
2019-01-08T06:40:09.504Z,0
2019-01-08T06:40:57.294Z,0
2019-01-08T06:41:30.724Z,0
2019-01-08T06:42:11.334Z,0
2019-01-08T06:42:51.936Z,0
2019-01-08T06:43:32.530Z,0
2019-01-08T06:44:13.165Z,0
2019-01-08T06:44:53.772Z,0
2019-01-08T06:45:34.398Z,0
2019-01-08T06:46:15.012Z,0
2019-01-08T06:46:55.614Z,0
2019-01-08T06:47:36.242Z,0
2019-01-08T06:48:16.860Z,0
2019-01-08T06:48:57.480Z,0
2019-01-08T06:49:38.097Z,0
2019-01-08T06:50:18.714Z,0
2019-01-08T06:50:59.348Z,0
2019-01-08T06:51:39.951Z,0
2019-01-08T06:52:20.589Z,0
2019-01-08T06:53:01.180Z,0
2019-01-08T06:53:41.794Z,0
2019-01-08T06:54:22.420Z,0
2019-01-08T06:55:03.034Z,0
2019-01-08T06:55:43.642Z,0
2019-01-08T06:56:24.264Z,0
2019-01-08T06:57:04.898Z,0
2019-01-08T06:57:45.531Z,0
2019-01-08T06:58:26.146Z,0
2019-01-08T06:59:06.804Z,4
2019-01-08T06:59:47.426Z,4
2019-01-08T07:00:33.133Z,0
2019-01-08T07:01:08.670Z,0
2019-01-08T07:01:49.279Z,0
2019-01-08T07:02:29.892Z,0
2019-01-08T07:03:10.520Z,4
2019-01-08T07:03:51.194Z,4
2019-01-08T07:04:31.810Z,0
2019-01-08T07:05:12.446Z,4
2019-01-08T07:05:53.058Z,4
2019-01-08T07:06:33.662Z,4
2019-01-08T07:07:14.264Z,4
2019-01-08T07:07:54.867Z,4
2019-01-08T07:08:35.474Z,4
2019-01-08T07:09:16.117Z,4
2019-01-08T07:09:56.730Z,4
2019-01-08T07:10:37.372Z,8
2019-01-08T07:11:17.984Z,4
2019-01-08T07:11:58.632Z,8
2019-01-08T07:12:39.251Z,8
2019-01-08T07:13:19.875Z,8
2019-01-08T07:14:00.478Z,12
2019-01-08T07:14:41.114Z,8
2019-01-08T07:15:21.716Z,12
2019-01-08T07:16:02.321Z,12
2019-01-08T07:16:42.947Z,12
2019-01-08T07:17:23.594Z,12
2019-01-08T07:18:04.206Z,16
2019-01-08T07:18:44.820Z,16
2019-01-08T07:19:25.420Z,20
2019-01-08T07:20:06.069Z,20
2019-01-08T07:20:46.678Z,20
2019-01-08T07:21:27.297Z,20
2019-01-08T07:22:07.920Z,20
2019-01-08T07:22:48.528Z,28
2019-01-08T07:23:29.154Z,28
2019-01-08T07:24:09.780Z,28
2019-01-08T07:24:50.414Z,32
2019-01-08T07:25:31.027Z,32
2019-01-08T07:26:11.638Z,32
2019-01-08T07:26:52.244Z,32
2019-01-08T07:27:32.864Z,36
2019-01-08T07:28:13.490Z,40
2019-01-08T07:28:54.104Z,40
2019-01-08T07:29:34.700Z,44
2019-01-08T07:30:15.302Z,44
2019-01-08T07:30:55.892Z,48
2019-01-08T07:31:36.504Z,48
2019-01-08T07:32:17.108Z,48
2019-01-08T07:32:57.730Z,52
2019-01-08T07:33:38.376Z,52
2019-01-08T07:34:19.006Z,56
2019-01-08T07:34:59.623Z,56
2019-01-08T07:35:40.238Z,60
2019-01-08T07:36:20.908Z,60
2019-01-08T07:37:01.512Z,68
2019-01-08T07:37:42.130Z,68
2019-01-08T07:38:22.752Z,72
2019-01-08T07:39:03.374Z,72
2019-01-08T07:39:43.984Z,76
2019-01-08T07:40:24.592Z,76
2019-01-08T07:41:05.201Z,80
2019-01-08T07:41:45.835Z,80
2019-01-08T07:42:26.433Z,84
2019-01-08T07:43:07.039Z,84
2019-01-08T07:43:47.670Z,88
2019-01-08T07:44:28.305Z,92
2019-01-08T07:45:08.917Z,92
2019-01-08T07:45:49.534Z,96
2019-01-08T07:46:30.149Z,96
2019-01-08T07:47:10.800Z,100
2019-01-08T07:47:51.409Z,100
2019-01-08T07:48:32.044Z,104
2019-01-08T07:49:12.651Z,104
2019-01-08T07:49:53.259Z,112
2019-01-08T07:50:33.911Z,112
2019-01-08T07:51:14.545Z,112
2019-01-08T07:51:55.169Z,116
2019-01-08T07:52:35.810Z,116
2019-01-08T07:53:16.462Z,116
2019-01-08T07:53:57.087Z,120
2019-01-08T07:54:37.713Z,124
2019-01-08T07:55:18.324Z,124
2019-01-08T07:55:58.942Z,128
2019-01-08T07:56:39.555Z,128
2019-01-08T07:57:20.226Z,136
2019-01-08T07:58:00.835Z,136
2019-01-08T07:58:41.462Z,140
2019-01-08T07:59:22.058Z,140
2019-01-08T08:00:02.684Z,144
2019-01-08T08:00:49.869Z,144
2019-01-08T08:01:23.918Z,144
2019-01-08T08:02:04.526Z,148
2019-01-08T08:02:45.136Z,148
2019-01-08T08:03:25.752Z,152
2019-01-08T08:04:06.364Z,152
2019-01-08T08:04:47.635Z,152
2019-01-08T08:05:27.575Z,160
2019-01-08T08:06:08.178Z,160
2019-01-08T08:06:48.787Z,160
2019-01-08T08:07:29.425Z,164
2019-01-08T08:08:10.029Z,164
2019-01-08T08:08:50.630Z,164
2019-01-08T08:09:31.255Z,168
2019-01-08T08:10:11.915Z,172
2019-01-08T08:10:52.542Z,172
2019-01-08T08:11:33.177Z,172
2019-01-08T08:12:13.786Z,176
2019-01-08T08:12:54.393Z,180
2019-01-08T08:13:34.993Z,180
2019-01-08T08:14:15.590Z,180
2019-01-08T08:14:56.194Z,180
2019-01-08T08:15:36.847Z,184
2019-01-08T08:16:17.466Z,184
2019-01-08T08:16:58.061Z,188
2019-01-08T08:17:38.675Z,188
2019-01-08T08:18:19.281Z,192
2019-01-08T08:18:59.882Z,192
2019-01-08T08:19:40.492Z,196
2019-01-08T08:20:21.115Z,196
2019-01-08T08:21:01.718Z,200
2019-01-08T08:21:42.323Z,204
2019-01-08T08:22:22.937Z,204
2019-01-08T08:23:03.543Z,208
2019-01-08T08:23:44.177Z,212
2019-01-08T08:24:24.788Z,216
2019-01-08T08:25:05.426Z,216
2019-01-08T08:25:46.030Z,220
2019-01-08T08:26:26.640Z,220
2019-01-08T08:27:07.243Z,224
2019-01-08T08:27:47.847Z,228
2019-01-08T08:28:28.448Z,232
2019-01-08T08:29:09.059Z,236
2019-01-08T08:29:49.652Z,240
2019-01-08T08:30:30.260Z,244
2019-01-08T08:31:10.858Z,244
2019-01-08T08:31:51.462Z,248
2019-01-08T08:32:32.079Z,252
2019-01-08T08:33:12.776Z,252
2019-01-08T08:33:53.352Z,256
2019-01-08T08:34:33.984Z,256
2019-01-08T08:35:14.601Z,260
2019-01-08T08:35:55.216Z,264
2019-01-08T08:36:35.845Z,264
2019-01-08T08:37:16.456Z,268
2019-01-08T08:37:57.099Z,272
2019-01-08T08:38:37.727Z,272
2019-01-08T08:39:18.334Z,276
2019-01-08T08:39:58.926Z,276
2019-01-08T08:40:39.519Z,280
2019-01-08T08:41:20.147Z,284
2019-01-08T08:42:00.762Z,288
2019-01-08T08:42:41.381Z,292
2019-01-08T08:43:21.991Z,288
2019-01-08T08:44:02.601Z,292
2019-01-08T08:44:43.208Z,296
2019-01-08T08:45:23.814Z,296
2019-01-08T08:46:04.465Z,304
2019-01-08T08:46:45.058Z,304
2019-01-08T08:47:25.688Z,308
2019-01-08T08:48:06.297Z,308
2019-01-08T08:48:46.913Z,312
2019-01-08T08:49:27.520Z,312
2019-01-08T08:50:08.129Z,316
2019-01-08T08:50:48.725Z,320
2019-01-08T08:51:29.343Z,324
2019-01-08T08:52:09.959Z,328
2019-01-08T08:52:50.561Z,328
2019-01-08T08:53:31.175Z,336
2019-01-08T08:54:11.798Z,340
2019-01-08T08:54:52.421Z,340
2019-01-08T08:55:33.017Z,344
2019-01-08T08:56:13.621Z,344
2019-01-08T08:56:54.229Z,348
2019-01-08T08:57:34.895Z,356
2019-01-08T08:58:15.508Z,352
2019-01-08T08:58:56.146Z,352
2019-01-08T08:59:36.748Z,352
2019-01-08T09:00:17.399Z,352
2019-01-08T09:00:58.023Z,364
2019-01-08T09:01:38.683Z,368
2019-01-08T09:02:19.313Z,368
2019-01-08T09:02:59.919Z,368
2019-01-08T09:03:40.533Z,368
2019-01-08T09:04:21.145Z,380
2019-01-08T09:05:01.765Z,384
2019-01-08T09:05:42.376Z,396
2019-01-08T09:06:22.964Z,404
2019-01-08T09:07:03.590Z,412
2019-01-08T09:07:44.196Z,412
2019-01-08T09:08:24.828Z,416
2019-01-08T09:09:05.463Z,424
2019-01-08T09:09:46.077Z,424
2019-01-08T09:10:26.682Z,424
2019-01-08T09:11:07.277Z,428
2019-01-08T09:11:47.890Z,436
2019-01-08T09:12:28.506Z,440
2019-01-08T09:13:09.142Z,444
2019-01-08T09:13:49.769Z,448
2019-01-08T09:14:30.372Z,456
2019-01-08T09:15:10.988Z,460
2019-01-08T09:15:51.599Z,464
2019-01-08T09:16:32.203Z,464
2019-01-08T09:17:12.794Z,468
2019-01-08T09:17:53.408Z,476
2019-01-08T09:18:34.003Z,484
2019-01-08T09:19:14.635Z,488
2019-01-08T09:19:55.235Z,492
2019-01-08T09:20:35.843Z,496
2019-01-08T09:21:16.452Z,496
2019-01-08T09:21:57.069Z,496
2019-01-08T09:22:37.673Z,488
2019-01-08T09:23:18.266Z,484
2019-01-08T09:23:58.870Z,488
2019-01-08T09:24:39.510Z,500
2019-01-08T09:25:20.117Z,500
2019-01-08T09:26:00.739Z,500
2019-01-08T09:26:41.367Z,504
2019-01-08T09:27:21.994Z,496
2019-01-08T09:28:02.634Z,500
2019-01-08T09:28:43.252Z,488
2019-01-08T09:29:23.871Z,452
2019-01-08T09:30:04.491Z,480
2019-01-08T09:30:45.087Z,524
2019-01-08T09:31:25.737Z,544
2019-01-08T09:32:06.347Z,556
2019-01-08T09:32:46.952Z,568
2019-01-08T09:33:27.561Z,580
2019-01-08T09:34:08.161Z,592
2019-01-08T09:34:48.773Z,592
2019-01-08T09:35:29.385Z,600
2019-01-08T09:36:10.003Z,600
2019-01-08T09:36:50.621Z,604
2019-01-08T09:37:31.232Z,608
2019-01-08T09:38:11.853Z,608
2019-01-08T09:38:52.465Z,620
2019-01-08T09:39:33.091Z,624
2019-01-08T09:40:13.711Z,628
2019-01-08T09:40:54.332Z,632
2019-01-08T09:41:34.974Z,636
2019-01-08T09:42:15.590Z,640
2019-01-08T09:42:56.212Z,644
2019-01-08T09:43:36.833Z,648
2019-01-08T09:44:17.447Z,652
2019-01-08T09:44:58.057Z,656
2019-01-08T09:45:38.663Z,656
2019-01-08T09:46:19.265Z,664
2019-01-08T09:46:59.901Z,664
2019-01-08T09:47:40.499Z,664
2019-01-08T09:48:21.107Z,676
2019-01-08T09:49:01.723Z,676
2019-01-08T09:49:42.347Z,676
2019-01-08T09:50:22.997Z,680
2019-01-08T09:51:03.602Z,684
2019-01-08T09:51:44.206Z,688
2019-01-08T09:52:24.851Z,688
2019-01-08T09:53:05.426Z,692
2019-01-08T09:53:46.033Z,696
2019-01-08T09:54:26.640Z,700
2019-01-08T09:55:07.257Z,704
2019-01-08T09:55:47.882Z,704
2019-01-08T09:56:28.521Z,708
2019-01-08T09:57:09.123Z,712
2019-01-08T09:57:49.747Z,716
2019-01-08T09:58:30.342Z,720
2019-01-08T09:59:10.945Z,720
2019-01-08T09:59:51.549Z,728
2019-01-08T10:00:32.169Z,728
2019-01-08T10:01:12.785Z,732
2019-01-08T10:01:53.395Z,732
2019-01-08T10:02:34.013Z,736
2019-01-08T10:03:14.626Z,740
2019-01-08T10:03:55.247Z,744
2019-01-08T10:04:35.867Z,744
2019-01-08T10:05:16.481Z,744
2019-01-08T10:05:57.135Z,748
2019-01-08T10:06:37.739Z,748
2019-01-08T10:07:18.357Z,752
2019-01-08T10:07:58.999Z,760